PWSweather.com
Personal Weather Stations
Station Observations
HARSTAD1
Kanebogen, HarstadNO 9411

KanebogenHarstadNO 9411

Lat: 68.7731054, Lon: 16.5496315

Elevation: 213

Station Type: Netatmo Weather Station

http://oddne.net/met/

Latest ConditionsUpdated 11:07:30 PM GMT+01:01 Saturday, Feb 23, 2019
Currently Today's Max Today's Min Today's Average
Temperature 41.7°F5.4°C 42.8°F6.0°C 38.5°F3.6°C 41.2°F5.1°C
Dew Point 39.0°F3.9°C 39.7°F4.3°C 36.3°F2.4°C 38.5°F3.6°C
Winds 6.8 mph SW10.9 kmh SW 9.9 mph -15.9 kmh - - 4.9 mph 7.9 kmh
Wind Gusts 18.6 mph29.9 kmh 21.8 mph35.1 kmh - -
Humidity 90% 93% 87% 90%
Pressure 30.02 in1016.6 mb 30.16 in1021.3 mb 29.99 in1015.6 mb -
Precipitation - 0.18 in4.6 mm - -
Hour Temp Dew Point Humidity Winds Wind Gusts Pressure Precip Precip Rate Daily Precip Total
11:07 PM 41.7°F5.4°C 39.0°F3.9°C 90% 6.8 mph SW10.9 kmh SW 18.6 mph29.9 kmh 30.02 in1016.6 mb 0.00 in0.0 mm 0.00 in0.0 mm 0.18 in4.6 mm
10:57 PM 41.7°F5.4°C 39.2°F4.0°C 91% 6.2 mph SW10.0 kmh SW 12.4 mph20.0 kmh 30.02 in1016.6 mb 0.00 in0.0 mm 0.00 in0.0 mm 0.18 in4.6 mm
10:47 PM 41.5°F5.3°C 39.0°F3.9°C 91% 5.6 mph SW9.0 kmh SW 14.3 mph23.0 kmh 30.02 in1016.6 mb 0.00 in0.0 mm 0.00 in0.0 mm 0.18 in4.6 mm
10:37 PM 41.4°F5.2°C 38.8°F3.8°C 91% 3.7 mph SW6.0 kmh SW 8.1 mph13.0 kmh 30.03 in1016.9 mb 0.00 in0.0 mm 0.00 in0.0 mm 0.18 in4.6 mm
10:27 PM 41.2°F5.1°C 38.7°F3.7°C 91% 3.7 mph SW6.0 kmh SW 6.8 mph10.9 kmh 30.02 in1016.6 mb 0.00 in0.0 mm 0.00 in0.0 mm 0.18 in4.6 mm
10:17 PM 41.2°F5.1°C 38.5°F3.6°C 90% 2.5 mph SW4.0 kmh SW 5.6 mph9.0 kmh 30.02 in1016.6 mb 0.00 in0.0 mm 0.00 in0.0 mm 0.18 in4.6 mm
10:07 PM 41.4°F5.2°C 38.7°F3.7°C 90% 2.5 mph WSW4.0 kmh WSW 6.8 mph10.9 kmh 30.03 in1016.9 mb 0.00 in0.0 mm 0.00 in0.0 mm 0.18 in4.6 mm
09:57 PM 41.4°F5.2°C 38.7°F3.7°C 90% 2.5 mph SW4.0 kmh SW 8.7 mph14.0 kmh 30.03 in1016.9 mb 0.00 in0.0 mm 0.00 in0.0 mm 0.18 in4.6 mm
09:47 PM 41.4°F5.2°C 38.7°F3.7°C 90% 3.1 mph SW5.0 kmh SW 8.1 mph13.0 kmh 30.03 in1016.9 mb 0.00 in0.0 mm 0.00 in0.0 mm 0.18 in4.6 mm
09:37 PM 41.4°F5.2°C 38.7°F3.7°C 90% 3.1 mph SW5.0 kmh SW 6.8 mph10.9 kmh 30.03 in1016.9 mb 0.00 in0.0 mm 0.00 in0.0 mm 0.18 in4.6 mm
09:27 PM 41.5°F5.3°C 38.8°F3.8°C 90% 2.5 mph SW4.0 kmh SW 6.2 mph10.0 kmh 30.03 in1016.9 mb 0.00 in0.0 mm 0.00 in0.0 mm 0.18 in4.6 mm
09:17 PM 41.5°F5.3°C 38.8°F3.8°C 90% 3.1 mph SW5.0 kmh SW 8.7 mph14.0 kmh 30.03 in1016.9 mb 0.00 in0.0 mm 0.00 in0.0 mm 0.18 in4.6 mm
09:07 PM 41.5°F5.3°C 38.8°F3.8°C 90% 3.7 mph SW6.0 kmh SW 9.9 mph15.9 kmh 30.04 in1017.3 mb 0.00 in0.0 mm 0.00 in0.0 mm 0.18 in4.6 mm
08:57 PM 41.5°F5.3°C 38.8°F3.8°C 90% 3.1 mph SW5.0 kmh SW 7.5 mph12.1 kmh 30.03 in1016.9 mb 0.00 in0.0 mm 0.00 in0.0 mm 0.18 in4.6 mm
08:47 PM 41.7°F5.4°C 39.0°F3.9°C 90% 3.7 mph SW6.0 kmh SW 7.5 mph12.1 kmh 30.03 in1016.9 mb 0.00 in0.0 mm 0.00 in0.0 mm 0.18 in4.6 mm
08:37 PM 41.5°F5.3°C 38.8°F3.8°C 90% 3.1 mph SW5.0 kmh SW 8.1 mph13.0 kmh 30.03 in1016.9 mb 0.00 in0.0 mm 0.00 in0.0 mm 0.18 in4.6 mm
08:27 PM 41.7°F5.4°C 39.0°F3.9°C 90% 3.1 mph SW5.0 kmh SW 9.3 mph15.0 kmh 30.04 in1017.3 mb 0.00 in0.0 mm 0.00 in0.0 mm 0.18 in4.6 mm
08:17 PM 41.7°F5.4°C 39.0°F3.9°C 90% 6.2 mph SW10.0 kmh SW 11.2 mph18.0 kmh 30.04 in1017.3 mb 0.00 in0.0 mm 0.00 in0.0 mm 0.18 in4.6 mm
08:07 PM 41.7°F5.4°C 39.0°F3.9°C 90% 5.0 mph SW8.0 kmh SW 12.4 mph20.0 kmh 30.05 in1017.6 mb 0.00 in0.0 mm 0.00 in0.0 mm 0.18 in4.6 mm
07:57 PM 41.7°F5.4°C 39.0°F3.9°C 90% 4.4 mph SSW7.1 kmh SSW 11.2 mph18.0 kmh 30.05 in1017.6 mb 0.00 in0.0 mm 0.00 in0.0 mm 0.18 in4.6 mm
07:47 PM 41.7°F5.4°C 39.0°F3.9°C 90% 5.6 mph SW9.0 kmh SW 12.4 mph20.0 kmh 30.05 in1017.6 mb 0.00 in0.0 mm 0.00 in0.0 mm 0.18 in4.6 mm
07:37 PM 41.5°F5.3°C 39.0°F3.9°C 91% 6.2 mph SW10.0 kmh SW 13.7 mph22.0 kmh 30.05 in1017.6 mb 0.00 in0.0 mm 0.00 in0.0 mm 0.18 in4.6 mm
07:27 PM 41.2°F5.1°C 38.7°F3.7°C 91% 5.0 mph SW8.0 kmh SW 18.0 mph29.0 kmh 30.05 in1017.6 mb 0.00 in0.0 mm 0.00 in0.0 mm 0.18 in4.6 mm
07:17 PM 41.0°F5.0°C 38.5°F3.6°C 91% 5.6 mph SW9.0 kmh SW 11.2 mph18.0 kmh 30.05 in1017.6 mb 0.00 in0.0 mm 0.00 in0.0 mm 0.18 in4.6 mm
07:07 PM 40.6°F4.8°C 38.1°F3.4°C 91% 2.5 mph SW4.0 kmh SW 6.8 mph10.9 kmh 30.06 in1017.9 mb 0.00 in0.0 mm 0.00 in0.0 mm 0.18 in4.6 mm
06:57 PM 40.6°F4.8°C 38.5°F3.6°C 92% 2.5 mph SW4.0 kmh SW 7.5 mph12.1 kmh 30.06 in1017.9 mb 0.00 in0.0 mm 0.00 in0.0 mm 0.18 in4.6 mm
06:47 PM 40.5°F4.7°C 37.9°F3.3°C 91% 2.5 mph SW4.0 kmh SW 7.5 mph12.1 kmh 30.06 in1017.9 mb 0.00 in0.0 mm 0.00 in0.0 mm 0.18 in4.6 mm
06:37 PM 40.3°F4.6°C 38.1°F3.4°C 92% 3.1 mph SW5.0 kmh SW 8.7 mph14.0 kmh 30.07 in1018.3 mb 0.00 in0.0 mm 0.00 in0.0 mm 0.18 in4.6 mm
06:27 PM 40.3°F4.6°C 38.1°F3.4°C 92% 3.1 mph SW5.0 kmh SW 7.5 mph12.1 kmh 30.08 in1018.6 mb 0.00 in0.0 mm 0.00 in0.0 mm 0.18 in4.6 mm
06:17 PM 40.3°F4.6°C 37.8°F3.2°C 91% 3.1 mph SW5.0 kmh SW 8.1 mph13.0 kmh 30.09 in1019.0 mb 0.00 in0.0 mm 0.00 in0.0 mm 0.18 in4.6 mm
06:07 PM 40.3°F4.6°C 37.8°F3.2°C 91% 1.9 mph SW3.1 kmh SW 5.6 mph9.0 kmh 30.09 in1019.0 mb 0.00 in0.0 mm 0.00 in0.0 mm 0.18 in4.6 mm
05:57 PM 40.3°F4.6°C 37.8°F3.2°C 91% 1.9 mph SW3.1 kmh SW 5.6 mph9.0 kmh 30.09 in1019.0 mb 0.00 in0.0 mm 0.00 in0.0 mm 0.18 in4.6 mm
05:47 PM 40.3°F4.6°C 37.8°F3.2°C 91% 3.1 mph SW5.0 kmh SW 6.8 mph10.9 kmh 30.10 in1019.3 mb 0.00 in0.0 mm 0.00 in0.0 mm 0.18 in4.6 mm
05:37 PM 40.3°F4.6°C 37.8°F3.2°C 91% 3.1 mph SW5.0 kmh SW 6.2 mph10.0 kmh 30.10 in1019.3 mb 0.00 in0.0 mm 0.00 in0.0 mm 0.18 in4.6 mm
05:27 PM 40.3°F4.6°C 37.8°F3.2°C 91% 2.5 mph SW4.0 kmh SW 5.6 mph9.0 kmh 30.10 in1019.3 mb 0.00 in0.0 mm 0.00 in0.0 mm 0.18 in4.6 mm
05:17 PM 40.3°F4.6°C 37.8°F3.2°C 91% 1.9 mph SW3.1 kmh SW 3.1 mph5.0 kmh 30.11 in1019.6 mb 0.00 in0.0 mm 0.00 in0.0 mm 0.18 in4.6 mm
05:07 PM 40.3°F4.6°C 37.8°F3.2°C 91% 3.1 mph SW5.0 kmh SW 5.6 mph9.0 kmh 30.11 in1019.6 mb 0.00 in0.0 mm 0.00 in0.0 mm 0.18 in4.6 mm
04:57 PM 40.5°F4.7°C 37.9°F3.3°C 91% 3.1 mph SW5.0 kmh SW 6.8 mph10.9 kmh 30.11 in1019.6 mb 0.00 in0.0 mm 0.00 in0.0 mm 0.18 in4.6 mm
04:47 PM 40.6°F4.8°C 38.1°F3.4°C 91% 3.1 mph SW5.0 kmh SW 6.8 mph10.9 kmh 30.11 in1019.6 mb 0.00 in0.0 mm 0.00 in0.0 mm 0.18 in4.6 mm
04:37 PM 40.8°F4.9°C 38.1°F3.4°C 90% 3.1 mph SW5.0 kmh SW 6.8 mph10.9 kmh 30.12 in1020.0 mb 0.00 in0.0 mm 0.00 in0.0 mm 0.18 in4.6 mm
04:27 PM 41.0°F5.0°C 38.3°F3.5°C 90% 1.9 mph SW3.1 kmh SW 5.0 mph8.0 kmh 30.12 in1020.0 mb 0.00 in0.0 mm 0.00 in0.0 mm 0.18 in4.6 mm
04:17 PM 41.2°F5.1°C 38.5°F3.6°C 90% 1.9 mph S3.1 kmh S 4.4 mph7.1 kmh 30.13 in1020.3 mb 0.00 in0.0 mm 0.00 in0.0 mm 0.18 in4.6 mm
04:07 PM 41.5°F5.3°C 38.5°F3.6°C 89% 1.9 mph SW3.1 kmh SW 5.0 mph8.0 kmh 30.13 in1020.3 mb 0.00 in0.0 mm 0.00 in0.0 mm 0.18 in4.6 mm
03:57 PM 41.9°F5.5°C 38.5°F3.6°C 88% 1.9 mph S3.1 kmh S 4.4 mph7.1 kmh 30.13 in1020.3 mb 0.00 in0.0 mm 0.00 in0.0 mm 0.18 in4.6 mm
03:47 PM 42.3°F5.7°C 38.8°F3.8°C 88% 1.2 mph SSW1.9 kmh SSW 4.4 mph7.1 kmh 30.13 in1020.3 mb 0.00 in0.0 mm 0.00 in0.0 mm 0.18 in4.6 mm
03:37 PM 42.4°F5.8°C 38.8°F3.8°C 87% 1.9 mph SW3.1 kmh SW 4.4 mph7.1 kmh 30.13 in1020.3 mb 0.00 in0.0 mm 0.00 in0.0 mm 0.18 in4.6 mm
03:27 PM 42.6°F5.9°C 39.0°F3.9°C 87% 2.5 mph SSW4.0 kmh SSW 6.8 mph10.9 kmh 30.13 in1020.3 mb 0.00 in0.0 mm 0.00 in0.0 mm 0.18 in4.6 mm
03:17 PM 42.6°F5.9°C 39.2°F4.0°C 88% 2.5 mph SSW4.0 kmh SSW 6.8 mph10.9 kmh 30.14 in1020.7 mb 0.00 in0.0 mm 0.00 in0.0 mm 0.18 in4.6 mm
03:07 PM 42.4°F5.8°C 39.0°F3.9°C 88% 2.5 mph S4.0 kmh S 8.1 mph13.0 kmh 30.14 in1020.7 mb 0.00 in0.0 mm 0.00 in0.0 mm 0.18 in4.6 mm
02:57 PM 42.3°F5.7°C 38.8°F3.8°C 88% 1.9 mph SSW3.1 kmh SSW 6.2 mph10.0 kmh 30.14 in1020.7 mb 0.00 in0.0 mm 0.00 in0.0 mm 0.18 in4.6 mm
02:47 PM 42.3°F5.7°C 38.8°F3.8°C 88% 2.5 mph SW4.0 kmh SW 7.5 mph12.1 kmh 30.14 in1020.7 mb 0.00 in0.0 mm 0.00 in0.0 mm 0.18 in4.6 mm
02:37 PM 42.1°F5.6°C 38.5°F3.6°C 87% 2.5 mph SW4.0 kmh SW 5.0 mph8.0 kmh 30.14 in1020.7 mb 0.00 in0.0 mm 0.00 in0.0 mm 0.18 in4.6 mm
02:27 PM 42.3°F5.7°C 38.7°F3.7°C 87% 2.5 mph SW4.0 kmh SW 8.1 mph13.0 kmh 30.14 in1020.7 mb 0.00 in0.0 mm 0.00 in0.0 mm 0.18 in4.6 mm
02:17 PM 42.3°F5.7°C 38.7°F3.7°C 87% 1.9 mph S3.1 kmh S 5.6 mph9.0 kmh 30.14 in1020.7 mb 0.00 in0.0 mm 0.00 in0.0 mm 0.18 in4.6 mm
02:07 PM 42.4°F5.8°C 38.8°F3.8°C 87% 3.1 mph SSW5.0 kmh SSW 7.5 mph12.1 kmh 30.15 in1021.0 mb 0.00 in0.0 mm 0.00 in0.0 mm 0.18 in4.6 mm
01:57 PM 42.4°F5.8°C 38.8°F3.8°C 87% 3.1 mph SSW5.0 kmh SSW 9.9 mph15.9 kmh 30.15 in1021.0 mb 0.00 in0.0 mm 0.00 in0.0 mm 0.18 in4.6 mm
01:47 PM 42.6°F5.9°C 39.0°F3.9°C 87% 3.7 mph SW6.0 kmh SW 9.9 mph15.9 kmh 30.15 in1021.0 mb 0.00 in0.0 mm 0.00 in0.0 mm 0.18 in4.6 mm
01:37 PM 42.6°F5.9°C 39.0°F3.9°C 87% 4.4 mph SW7.1 kmh SW 8.7 mph14.0 kmh 30.15 in1021.0 mb 0.00 in0.0 mm 0.00 in0.0 mm 0.18 in4.6 mm
01:27 PM 42.6°F5.9°C 39.0°F3.9°C 87% 5.0 mph SW8.0 kmh SW 11.2 mph18.0 kmh 30.15 in1021.0 mb 0.00 in0.0 mm 0.00 in0.0 mm 0.18 in4.6 mm
01:17 PM 42.6°F5.9°C 39.0°F3.9°C 87% 3.7 mph SSW6.0 kmh SSW 8.7 mph14.0 kmh 30.16 in1021.3 mb 0.00 in0.0 mm 0.00 in0.0 mm 0.18 in4.6 mm
01:07 PM 42.6°F5.9°C 39.0°F3.9°C 87% 4.4 mph SW7.1 kmh SW 11.8 mph19.0 kmh 30.16 in1021.3 mb 0.00 in0.0 mm 0.00 in0.0 mm 0.18 in4.6 mm
12:57 PM 42.8°F6.0°C 39.2°F4.0°C 87% 1.9 mph SW3.1 kmh SW 5.6 mph9.0 kmh 30.16 in1021.3 mb 0.00 in0.0 mm 0.00 in0.0 mm 0.18 in4.6 mm
12:47 PM 42.8°F6.0°C 39.2°F4.0°C 87% 2.5 mph SSW4.0 kmh SSW 6.2 mph10.0 kmh 30.16 in1021.3 mb 0.00 in0.0 mm 0.00 in0.0 mm 0.18 in4.6 mm
12:37 PM 42.8°F6.0°C 39.2°F4.0°C 87% 1.9 mph SSW3.1 kmh SSW 7.5 mph12.1 kmh 30.16 in1021.3 mb 0.00 in0.0 mm 0.00 in0.0 mm 0.18 in4.6 mm
12:27 PM 42.8°F6.0°C 39.2°F4.0°C 87% 1.9 mph SW3.1 kmh SW 7.5 mph12.1 kmh 30.16 in1021.3 mb 0.00 in0.0 mm 0.00 in0.0 mm 0.18 in4.6 mm
12:17 PM 42.8°F6.0°C 39.2°F4.0°C 87% 1.9 mph SW3.1 kmh SW 8.1 mph13.0 kmh 30.16 in1021.3 mb 0.00 in0.0 mm 0.00 in0.0 mm 0.21 in5.3 mm
12:07 PM 42.8°F6.0°C 39.2°F4.0°C 87% 5.0 mph SSW8.0 kmh SSW 13.7 mph22.0 kmh 30.16 in1021.3 mb 0.00 in0.0 mm 0.00 in0.0 mm 0.21 in5.3 mm
11:57 AM 42.6°F5.9°C 39.0°F3.9°C 87% 3.7 mph SW6.0 kmh SW 9.3 mph15.0 kmh 30.15 in1021.0 mb 0.00 in0.0 mm 0.00 in0.0 mm 0.18 in4.6 mm
11:47 AM 42.6°F5.9°C 39.2°F4.0°C 88% 2.5 mph SW4.0 kmh SW 4.4 mph7.1 kmh 30.15 in1021.0 mb 0.00 in0.0 mm 0.00 in0.0 mm 0.18 in4.6 mm
11:37 AM 42.4°F5.8°C 39.0°F3.9°C 88% 2.5 mph SW4.0 kmh SW 4.4 mph7.1 kmh 30.15 in1021.0 mb 0.00 in0.0 mm 0.00 in0.0 mm 0.18 in4.6 mm
11:27 AM 42.1°F5.6°C 38.7°F3.7°C 88% 2.5 mph SW4.0 kmh SW 4.4 mph7.1 kmh 30.15 in1021.0 mb 0.00 in0.0 mm 0.00 in0.0 mm 0.18 in4.6 mm
11:17 AM 42.1°F5.6°C 38.7°F3.7°C 88% 3.1 mph SW5.0 kmh SW 6.2 mph10.0 kmh 30.16 in1021.3 mb 0.00 in0.0 mm 0.00 in0.0 mm 0.18 in4.6 mm
11:07 AM 42.3°F5.7°C 38.8°F3.8°C 88% 2.5 mph SW4.0 kmh SW 4.4 mph7.1 kmh 30.16 in1021.3 mb 0.00 in0.0 mm 0.00 in0.0 mm 0.18 in4.6 mm
10:57 AM 42.3°F5.7°C 38.8°F3.8°C 88% 2.5 mph WSW4.0 kmh WSW 6.8 mph10.9 kmh 30.15 in1021.0 mb 0.00 in0.0 mm 0.00 in0.0 mm 0.18 in4.6 mm
10:47 AM 42.3°F5.7°C 38.8°F3.8°C 88% 3.1 mph SSW5.0 kmh SSW 7.5 mph12.1 kmh 30.15 in1021.0 mb 0.00 in0.0 mm 0.00 in0.0 mm 0.21 in5.3 mm
10:37 AM 42.4°F5.8°C 38.8°F3.8°C 87% 3.7 mph SSW6.0 kmh SSW 8.7 mph14.0 kmh 30.14 in1020.7 mb 0.00 in0.0 mm 0.00 in0.0 mm 0.18 in4.6 mm
10:27 AM 42.6°F5.9°C 39.0°F3.9°C 87% 3.1 mph SSW5.0 kmh SSW 8.7 mph14.0 kmh 30.13 in1020.3 mb 0.00 in0.0 mm 0.00 in0.0 mm 0.18 in4.6 mm
10:17 AM 42.6°F5.9°C 39.2°F4.0°C 88% 3.1 mph SW5.0 kmh SW 7.5 mph12.1 kmh 30.12 in1020.0 mb 0.00 in0.0 mm 0.00 in0.0 mm 0.18 in4.6 mm
10:07 AM 42.6°F5.9°C 39.2°F4.0°C 88% 4.4 mph SW7.1 kmh SW 13.7 mph22.0 kmh 30.12 in1020.0 mb 0.00 in0.0 mm 0.00 in0.0 mm 0.18 in4.6 mm
09:57 AM 42.6°F5.9°C 39.2°F4.0°C 88% 4.4 mph SW7.1 kmh SW 16.2 mph26.1 kmh 30.11 in1019.6 mb 0.00 in0.0 mm 0.00 in0.0 mm 0.18 in4.6 mm
09:47 AM 42.6°F5.9°C 39.2°F4.0°C 88% 4.4 mph SW7.1 kmh SW 15.5 mph24.9 kmh 30.11 in1019.6 mb 0.00 in0.0 mm 0.00 in0.0 mm 0.18 in4.6 mm
09:37 AM 42.8°F6.0°C 39.7°F4.3°C 89% 3.7 mph SSW6.0 kmh SSW 13.7 mph22.0 kmh 30.11 in1019.6 mb 0.00 in0.0 mm 0.00 in0.0 mm 0.18 in4.6 mm
09:27 AM 42.8°F6.0°C 39.7°F4.3°C 89% 4.4 mph SSW7.1 kmh SSW 8.7 mph14.0 kmh 30.11 in1019.6 mb 0.00 in0.0 mm 0.00 in0.0 mm 0.18 in4.6 mm
09:17 AM 42.6°F5.9°C 39.6°F4.2°C 89% 6.2 mph SW10.0 kmh SW 11.8 mph19.0 kmh 30.11 in1019.6 mb 0.00 in0.0 mm 0.00 in0.0 mm 0.21 in5.3 mm
09:07 AM 42.4°F5.8°C 39.4°F4.1°C 89% 3.1 mph WSW5.0 kmh WSW 9.3 mph15.0 kmh 30.11 in1019.6 mb 0.00 in0.0 mm 0.00 in0.0 mm 0.21 in5.3 mm
08:57 AM 42.4°F5.8°C 39.7°F4.3°C 90% 4.4 mph SW7.1 kmh SW 12.4 mph20.0 kmh 30.10 in1019.3 mb 0.00 in0.0 mm 0.00 in0.0 mm 0.21 in5.3 mm
08:47 AM 42.3°F5.7°C 39.7°F4.3°C 91% 8.7 mph SW14.0 kmh SW 18.6 mph29.9 kmh 30.10 in1019.3 mb 0.00 in0.0 mm 0.00 in0.0 mm 0.21 in5.3 mm
08:37 AM 41.7°F5.4°C 39.2°F4.0°C 91% 6.8 mph SW10.9 kmh SW 19.3 mph31.1 kmh 30.11 in1019.6 mb 0.00 in0.0 mm 0.00 in0.0 mm 0.21 in5.3 mm
08:27 AM 41.5°F5.3°C 39.0°F3.9°C 91% 5.0 mph WSW8.0 kmh WSW 14.3 mph23.0 kmh 30.10 in1019.3 mb 0.00 in0.0 mm 0.00 in0.0 mm 0.21 in5.3 mm
08:17 AM 41.5°F5.3°C 39.0°F3.9°C 91% 4.4 mph WSW7.1 kmh WSW 9.3 mph15.0 kmh 30.10 in1019.3 mb 0.00 in0.0 mm 0.00 in0.0 mm 0.21 in5.3 mm
08:07 AM 41.4°F5.2°C 38.8°F3.8°C 91% 5.0 mph WSW8.0 kmh WSW 8.1 mph13.0 kmh 30.09 in1019.0 mb 0.00 in0.0 mm 0.00 in0.0 mm 0.17 in4.3 mm
07:57 AM 41.2°F5.1°C 39.0°F3.9°C 92% 5.6 mph WSW9.0 kmh WSW 11.8 mph19.0 kmh 30.09 in1019.0 mb 0.00 in0.0 mm 0.00 in0.0 mm 0.17 in4.3 mm
07:47 AM 40.8°F4.9°C 38.7°F3.7°C 92% 5.0 mph WSW8.0 kmh WSW 12.4 mph20.0 kmh 30.08 in1018.6 mb 0.00 in0.0 mm 0.00 in0.0 mm 0.21 in5.3 mm
07:37 AM 40.8°F4.9°C 38.7°F3.7°C 92% 3.7 mph SW6.0 kmh SW 7.5 mph12.1 kmh 30.07 in1018.3 mb 0.00 in0.0 mm 0.00 in0.0 mm 0.17 in4.3 mm
07:27 AM 40.6°F4.8°C 38.5°F3.6°C 92% 3.7 mph WSW6.0 kmh WSW 8.7 mph14.0 kmh 30.07 in1018.3 mb 0.00 in0.0 mm 0.00 in0.0 mm 0.17 in4.3 mm
07:17 AM 40.6°F4.8°C 38.5°F3.6°C 92% 4.4 mph WSW7.1 kmh WSW 7.5 mph12.1 kmh 30.07 in1018.3 mb 0.00 in0.0 mm 0.00 in0.0 mm 0.21 in5.3 mm
07:07 AM 40.6°F4.8°C 38.5°F3.6°C 92% 5.0 mph W8.0 kmh W 9.9 mph15.9 kmh 30.07 in1018.3 mb 0.00 in0.0 mm 0.00 in0.0 mm 0.21 in5.3 mm
06:57 AM 40.6°F4.8°C 38.5°F3.6°C 92% 7.5 mph WSW12.1 kmh WSW 11.8 mph19.0 kmh 30.07 in1018.3 mb 0.00 in0.0 mm 0.00 in0.0 mm 0.21 in5.3 mm
06:47 AM 40.5°F4.7°C 38.3°F3.5°C 92% 6.8 mph W10.9 kmh W 10.6 mph17.1 kmh 30.06 in1017.9 mb 0.00 in0.0 mm 0.00 in0.0 mm 0.21 in5.3 mm
06:37 AM 40.5°F4.7°C 38.3°F3.5°C 92% 8.1 mph W13.0 kmh W 14.9 mph24.0 kmh 30.06 in1017.9 mb 0.00 in0.0 mm 0.00 in0.0 mm 0.21 in5.3 mm
06:27 AM 40.5°F4.7°C 38.3°F3.5°C 92% 9.9 mph W15.9 kmh W 16.2 mph26.1 kmh 30.06 in1017.9 mb 0.00 in0.0 mm 0.00 in0.0 mm 0.21 in5.3 mm
06:17 AM 40.5°F4.7°C 38.3°F3.5°C 92% 8.7 mph W14.0 kmh W 16.2 mph26.1 kmh 30.05 in1017.6 mb 0.00 in0.0 mm 0.00 in0.0 mm 0.21 in5.3 mm
06:07 AM 40.6°F4.8°C 38.5°F3.6°C 92% 7.5 mph W12.1 kmh W 14.9 mph24.0 kmh 30.04 in1017.3 mb 0.00 in0.0 mm 0.00 in0.0 mm 0.21 in5.3 mm
05:57 AM 40.6°F4.8°C 38.5°F3.6°C 92% 8.7 mph W14.0 kmh W 19.3 mph31.1 kmh 30.04 in1017.3 mb 0.00 in0.0 mm 0.00 in0.0 mm 0.21 in5.3 mm
05:47 AM 40.6°F4.8°C 38.5°F3.6°C 92% 7.5 mph W12.1 kmh W 14.3 mph23.0 kmh 30.04 in1017.3 mb 0.00 in0.0 mm 0.00 in0.0 mm 0.21 in5.3 mm
05:37 AM 40.8°F4.9°C 38.7°F3.7°C 92% 8.7 mph W14.0 kmh W 14.9 mph24.0 kmh 30.04 in1017.3 mb 0.00 in0.0 mm 0.00 in0.0 mm 0.21 in5.3 mm
05:27 AM 40.8°F4.9°C 38.7°F3.7°C 92% 8.1 mph W13.0 kmh W 19.3 mph31.1 kmh 30.04 in1017.3 mb 0.00 in0.0 mm 0.00 in0.0 mm 0.21 in5.3 mm
05:17 AM 40.8°F4.9°C 38.7°F3.7°C 92% 8.7 mph W14.0 kmh W 21.8 mph35.1 kmh 30.03 in1016.9 mb 0.00 in0.0 mm 0.00 in0.0 mm 0.21 in5.3 mm
05:07 AM 40.8°F4.9°C 38.7°F3.7°C 92% 8.7 mph W14.0 kmh W 13.7 mph22.0 kmh 30.03 in1016.9 mb 0.00 in0.0 mm 0.00 in0.0 mm 0.21 in5.3 mm
04:57 AM 40.6°F4.8°C 38.5°F3.6°C 92% 8.7 mph W14.0 kmh W 18.0 mph29.0 kmh 30.03 in1016.9 mb 0.00 in0.0 mm 0.00 in0.0 mm 0.21 in5.3 mm
04:47 AM 40.5°F4.7°C 38.3°F3.5°C 92% 8.1 mph W13.0 kmh W 13.7 mph22.0 kmh 30.02 in1016.6 mb 0.00 in0.0 mm 0.00 in0.0 mm 0.21 in5.3 mm
04:37 AM 40.6°F4.8°C 38.5°F3.6°C 92% 8.7 mph W14.0 kmh W 16.2 mph26.1 kmh 30.01 in1016.3 mb 0.00 in0.0 mm 0.00 in0.0 mm 0.21 in5.3 mm
04:27 AM 40.6°F4.8°C 38.5°F3.6°C 92% 8.1 mph W13.0 kmh W 13.1 mph21.1 kmh 30.02 in1016.6 mb 0.00 in0.0 mm 0.00 in0.0 mm 0.21 in5.3 mm
04:17 AM 40.6°F4.8°C 38.7°F3.7°C 93% 8.1 mph W13.0 kmh W 13.1 mph21.1 kmh 30.02 in1016.6 mb 0.00 in0.0 mm 0.00 in0.0 mm 0.21 in5.3 mm
04:07 AM 40.5°F4.7°C 38.7°F3.7°C 93% 8.7 mph W14.0 kmh W 19.3 mph31.1 kmh 30.01 in1016.3 mb 0.00 in0.0 mm 0.00 in0.0 mm 0.21 in5.3 mm
03:57 AM 40.5°F4.7°C 38.7°F3.7°C 93% 7.5 mph W12.1 kmh W 11.8 mph19.0 kmh 30.01 in1016.3 mb 0.00 in0.0 mm 0.00 in0.0 mm 0.21 in5.3 mm
03:47 AM 40.5°F4.7°C 38.7°F3.7°C 93% 7.5 mph W12.1 kmh W 11.8 mph19.0 kmh 30.01 in1016.3 mb 0.00 in0.0 mm 0.00 in0.0 mm 0.21 in5.3 mm
03:37 AM 40.3°F4.6°C 38.5°F3.6°C 93% 6.8 mph WSW10.9 kmh WSW 13.1 mph21.1 kmh 30.01 in1016.3 mb 0.00 in0.0 mm 0.00 in0.0 mm 0.21 in5.3 mm
03:27 AM 39.9°F4.4°C 38.1°F3.4°C 93% 8.1 mph W13.0 kmh W 12.4 mph20.0 kmh 30.00 in1015.9 mb 0.00 in0.0 mm 0.00 in0.0 mm 0.21 in5.3 mm
03:17 AM 39.9°F4.4°C 38.1°F3.4°C 93% 6.2 mph W10.0 kmh W 11.8 mph19.0 kmh 30.00 in1015.9 mb 0.00 in0.0 mm 0.00 in0.0 mm 0.21 in5.3 mm
03:07 AM 39.7°F4.3°C 37.9°F3.3°C 93% 7.5 mph W12.1 kmh W 14.9 mph24.0 kmh 30.00 in1015.9 mb 0.00 in0.0 mm 0.00 in0.0 mm 0.21 in5.3 mm
02:57 AM 39.6°F4.2°C 37.8°F3.2°C 93% 6.8 mph WNW10.9 kmh WNW 14.3 mph23.0 kmh 30.00 in1015.9 mb 0.00 in0.0 mm 0.00 in0.0 mm 0.21 in5.3 mm
02:47 AM 39.6°F4.2°C 37.8°F3.2°C 93% 8.1 mph WNW13.0 kmh WNW 15.5 mph24.9 kmh 29.99 in1015.6 mb 0.00 in0.0 mm 0.00 in0.0 mm 0.21 in5.3 mm
02:37 AM 39.6°F4.2°C 37.8°F3.2°C 93% 6.8 mph W10.9 kmh W 15.5 mph24.9 kmh 29.99 in1015.6 mb 0.00 in0.0 mm 0.00 in0.0 mm 0.21 in5.3 mm
02:27 AM 39.2°F4.0°C 37.4°F3.0°C 93% 8.1 mph W13.0 kmh W 15.5 mph24.9 kmh 29.99 in1015.6 mb 0.00 in0.0 mm 0.00 in0.0 mm 0.21 in5.3 mm
02:17 AM 39.0°F3.9°C 37.2°F2.9°C 93% 8.7 mph W14.0 kmh W 14.3 mph23.0 kmh 29.99 in1015.6 mb 0.00 in0.0 mm 0.00 in0.0 mm 0.21 in5.3 mm
02:07 AM 39.0°F3.9°C 37.2°F2.9°C 93% 7.5 mph WNW12.1 kmh WNW 14.3 mph23.0 kmh 29.99 in1015.6 mb 0.07 in1.8 mm 0.00 in0.0 mm 0.17 in4.3 mm
01:57 AM 39.0°F3.9°C 37.2°F2.9°C 93% 7.5 mph W12.1 kmh W 12.4 mph20.0 kmh 29.99 in1015.6 mb 0.08 in2.0 mm 0.48 in12.2 mm 0.17 in4.3 mm
01:47 AM 38.5°F3.6°C 36.7°F2.6°C 93% 8.1 mph W13.0 kmh W 12.4 mph20.0 kmh 29.99 in1015.6 mb 0.00 in0.0 mm 0.00 in0.0 mm 0.13 in3.3 mm
01:37 AM 38.5°F3.6°C 36.3°F2.4°C 92% 9.3 mph W15.0 kmh W 13.1 mph21.1 kmh 30.00 in1015.9 mb 0.08 in2.0 mm 0.06 in1.5 mm 0.14 in3.6 mm
01:27 AM 38.8°F3.8°C 36.7°F2.6°C 92% 8.7 mph W14.0 kmh W 14.3 mph23.0 kmh 30.00 in1015.9 mb 0.07 in1.8 mm 0.00 in0.0 mm 0.12 in3.0 mm
01:17 AM 39.0°F3.9°C 36.9°F2.7°C 92% 8.1 mph W13.0 kmh W 12.4 mph20.0 kmh 30.00 in1015.9 mb 0.07 in1.8 mm 0.00 in0.0 mm 0.11 in2.8 mm
01:07 AM 39.0°F3.9°C 36.9°F2.7°C 92% 7.5 mph WNW12.1 kmh WNW 13.1 mph21.1 kmh 30.00 in1015.9 mb 0.09 in2.3 mm 0.00 in0.0 mm 0.10 in2.5 mm
12:57 AM 39.0°F3.9°C 36.9°F2.7°C 92% 7.5 mph W12.1 kmh W 11.8 mph19.0 kmh 30.00 in1015.9 mb 0.10 in2.5 mm 0.00 in0.0 mm 0.09 in2.3 mm
12:47 AM 39.0°F3.9°C 36.9°F2.7°C 92% 8.7 mph W14.0 kmh W 16.8 mph27.0 kmh 30.00 in1015.9 mb 0.10 in2.5 mm 0.00 in0.0 mm 0.07 in1.8 mm
12:37 AM 39.4°F4.1°C 37.2°F2.9°C 92% 8.7 mph WNW14.0 kmh WNW 13.7 mph22.0 kmh 30.00 in1015.9 mb 0.10 in2.5 mm 0.00 in0.0 mm 0.06 in1.5 mm
12:27 AM 39.6°F4.2°C 37.4°F3.0°C 92% 8.1 mph W13.0 kmh W 15.5 mph24.9 kmh 30.00 in1015.9 mb 0.10 in2.5 mm 0.12 in3.0 mm 0.06 in1.5 mm
12:17 AM 39.9°F4.4°C 37.8°F3.2°C 92% 9.3 mph W15.0 kmh W 14.3 mph23.0 kmh 29.99 in1015.6 mb 0.08 in2.0 mm 0.00 in0.0 mm 0.01 in0.3 mm
12:07 AM 39.9°F4.4°C 37.8°F3.2°C 92% 9.3 mph W15.0 kmh W 14.3 mph23.0 kmh 29.99 in1015.6 mb 0.10 in2.5 mm 0.86 in21.8 mm 0.01 in0.3 mm